sensor_id;sensor_type;location;lat;lon;timestamp;pressure;altitude;pressure_sealevel;temperature;humidity
21100;BME280;10708;50.824;4.408;2022-11-02T00:00:48;100558.16;;;13.52;100.00
21100;BME280;10708;50.824;4.408;2022-11-02T00:05:50;100561.09;;;13.46;100.00
21100;BME280;10708;50.824;4.408;2022-11-02T00:10:54;100566.59;;;13.42;100.00
21100;BME280;10708;50.824;4.408;2022-11-02T00:15:56;100574.66;;;13.39;100.00
21100;BME280;10708;50.824;4.408;2022-11-02T00:21:02;100573.19;;;13.33;100.00
21100;BME280;10708;50.824;4.408;2022-11-02T00:26:07;100568.94;;;13.29;100.00
21100;BME280;10708;50.824;4.408;2022-11-02T00:31:09;100580.44;;;13.28;100.00
21100;BME280;10708;50.824;4.408;2022-11-02T00:36:12;100579.81;;;13.23;100.00
21100;BME280;10708;50.824;4.408;2022-11-02T00:41:16;100584.38;;;13.19;100.00
21100;BME280;10708;50.824;4.408;2022-11-02T00:46:18;100587.75;;;13.23;100.00
21100;BME280;10708;50.824;4.408;2022-11-02T00:51:21;100592.13;;;13.24;100.00
21100;BME280;10708;50.824;4.408;2022-11-02T00:56:24;100585.25;;;13.20;100.00
21100;BME280;10708;50.824;4.408;2022-11-02T01:01:26;100594.97;;;13.19;100.00
21100;BME280;10708;50.824;4.408;2022-11-02T01:06:29;100597.88;;;13.13;100.00
21100;BME280;10708;50.824;4.408;2022-11-02T01:11:33;100604.28;;;13.08;100.00
21100;BME280;10708;50.824;4.408;2022-11-02T01:16:37;100602.78;;;13.02;100.00
21100;BME280;10708;50.824;4.408;2022-11-02T01:21:39;100610.13;;;12.96;100.00
21100;BME280;10708;50.824;4.408;2022-11-02T01:26:43;100610.25;;;12.92;100.00
21100;BME280;10708;50.824;4.408;2022-11-02T01:31:45;100612.28;;;12.87;100.00
21100;BME280;10708;50.824;4.408;2022-11-02T01:36:48;100624.81;;;12.82;100.00
21100;BME280;10708;50.824;4.408;2022-11-02T01:41:52;100620.44;;;12.81;100.00
21100;BME280;10708;50.824;4.408;2022-11-02T01:46:59;100626.66;;;12.80;100.00
21100;BME280;10708;50.824;4.408;2022-11-02T01:52:06;100626.81;;;12.77;100.00
21100;BME280;10708;50.824;4.408;2022-11-02T01:57:12;100632.28;;;12.73;100.00
21100;BME280;10708;50.824;4.408;2022-11-02T02:02:20;100633.16;;;12.73;100.00
21100;BME280;10708;50.824;4.408;2022-11-02T02:07:24;100641.13;;;12.72;100.00
21100;BME280;10708;50.824;4.408;2022-11-02T02:12:30;100650.00;;;12.71;100.00
21100;BME280;10708;50.824;4.408;2022-11-02T02:17:41;100653.47;;;12.71;100.00
21100;BME280;10708;50.824;4.408;2022-11-02T02:23:07;100659.28;;;12.79;100.00
21100;BME280;10708;50.824;4.408;2022-11-02T02:28:18;100653.16;;;12.79;100.00
21100;BME280;10708;50.824;4.408;2022-11-02T02:33:28;100671.00;;;12.74;100.00
21100;BME280;10708;50.824;4.408;2022-11-02T02:38:34;100661.47;;;12.70;100.00
21100;BME280;10708;50.824;4.408;2022-11-02T02:43:47;100669.75;;;12.62;100.00
21100;BME280;10708;50.824;4.408;2022-11-02T02:48:53;100670.59;;;12.63;100.00
21100;BME280;10708;50.824;4.408;2022-11-02T02:53:59;100667.91;;;12.64;100.00
21100;BME280;10708;50.824;4.408;2022-11-02T02:59:06;100690.75;;;12.65;100.00
21100;BME280;10708;50.824;4.408;2022-11-02T03:04:10;100686.38;;;12.64;100.00
21100;BME280;10708;50.824;4.408;2022-11-02T03:09:18;100688.22;;;12.62;100.00
21100;BME280;10708;50.824;4.408;2022-11-02T03:14:35;100709.50;;;12.59;100.00
21100;BME280;10708;50.824;4.408;2022-11-02T03:19:48;100704.94;;;12.63;100.00
21100;BME280;10708;50.824;4.408;2022-11-02T03:24:57;100704.19;;;12.59;100.00
21100;BME280;10708;50.824;4.408;2022-11-02T03:30:04;100715.91;;;12.53;100.00
21100;BME280;10708;50.824;4.408;2022-11-02T03:35:14;100727.66;;;12.46;100.00
21100;BME280;10708;50.824;4.408;2022-11-02T03:40:20;100735.69;;;12.43;100.00
21100;BME280;10708;50.824;4.408;2022-11-02T03:45:28;100736.72;;;12.39;100.00
21100;BME280;10708;50.824;4.408;2022-11-02T03:50:33;100765.97;;;12.35;100.00
21100;BME280;10708;50.824;4.408;2022-11-02T03:55:41;100765.34;;;12.28;100.00
21100;BME280;10708;50.824;4.408;2022-11-02T04:00:51;100775.28;;;12.22;100.00
21100;BME280;10708;50.824;4.408;2022-11-02T04:05:54;100785.19;;;12.16;100.00
21100;BME280;10708;50.824;4.408;2022-11-02T04:10:57;100808.94;;;12.16;100.00
21100;BME280;10708;50.824;4.408;2022-11-02T04:16:18;100805.41;;;12.17;100.00
21100;BME280;10708;50.824;4.408;2022-11-02T04:21:21;100817.72;;;12.17;100.00
21100;BME280;10708;50.824;4.408;2022-11-02T04:26:23;100832.13;;;12.08;100.00
21100;BME280;10708;50.824;4.408;2022-11-02T04:31:27;100833.22;;;12.03;100.00
21100;BME280;10708;50.824;4.408;2022-11-02T04:36:30;100855.19;;;12.03;100.00
21100;BME280;10708;50.824;4.408;2022-11-02T04:41:32;100857.84;;;12.03;100.00
21100;BME280;10708;50.824;4.408;2022-11-02T04:46:45;100873.78;;;12.00;100.00
21100;BME280;10708;50.824;4.408;2022-11-02T04:51:47;100879.50;;;11.88;100.00
21100;BME280;10708;50.824;4.408;2022-11-02T04:56:49;100884.31;;;11.77;100.00
21100;BME280;10708;50.824;4.408;2022-11-02T05:01:56;100890.69;;;11.70;100.00
21100;BME280;10708;50.824;4.408;2022-11-02T05:06:58;100904.09;;;11.64;100.00
21100;BME280;10708;50.824;4.408;2022-11-02T05:12:00;100912.28;;;11.56;100.00
21100;BME280;10708;50.824;4.408;2022-11-02T05:17:06;100914.19;;;11.51;100.00
21100;BME280;10708;50.824;4.408;2022-11-02T05:22:08;100925.00;;;11.43;100.00
21100;BME280;10708;50.824;4.408;2022-11-02T05:27:10;100927.78;;;11.39;100.00
21100;BME280;10708;50.824;4.408;2022-11-02T05:32:15;100937.59;;;11.35;100.00
21100;BME280;10708;50.824;4.408;2022-11-02T05:37:17;100939.47;;;11.32;100.00
21100;BME280;10708;50.824;4.408;2022-11-02T05:42:19;100944.91;;;11.27;100.00
21100;BME280;10708;50.824;4.408;2022-11-02T05:47:23;100955.38;;;11.29;100.00
21100;BME280;10708;50.824;4.408;2022-11-02T05:52:25;100965.88;;;11.30;100.00
21100;BME280;10708;50.824;4.408;2022-11-02T05:57:27;100976.34;;;11.33;100.00
21100;BME280;10708;50.824;4.408;2022-11-02T06:02:32;100976.38;;;11.32;100.00
21100;BME280;10708;50.824;4.408;2022-11-02T06:07:35;100989.66;;;11.29;100.00
21100;BME280;10708;50.824;4.408;2022-11-02T06:12:37;100985.31;;;11.28;100.00
21100;BME280;10708;50.824;4.408;2022-11-02T06:17:40;100998.59;;;11.25;100.00
21100;BME280;10708;50.824;4.408;2022-11-02T06:22:43;101003.28;;;11.15;100.00
21100;BME280;10708;50.824;4.408;2022-11-02T06:27:52;101018.38;;;11.10;100.00
21100;BME280;10708;50.824;4.408;2022-11-02T06:32:57;101031.78;;;11.02;100.00
21100;BME280;10708;50.824;4.408;2022-11-02T06:37:59;101041.53;;;10.99;100.00
21100;BME280;10708;50.824;4.408;2022-11-02T06:43:02;101053.16;;;10.93;100.00
21100;BME280;10708;50.824;4.408;2022-11-02T06:48:05;101068.22;;;10.88;100.00
21100;BME280;10708;50.824;4.408;2022-11-02T06:53:08;101065.72;;;10.84;100.00
21100;BME280;10708;50.824;4.408;2022-11-02T06:58:10;101078.13;;;10.80;100.00
21100;BME280;10708;50.824;4.408;2022-11-02T07:03:14;101097.56;;;10.76;100.00
21100;BME280;10708;50.824;4.408;2022-11-02T07:08:17;101092.19;;;10.79;100.00
21100;BME280;10708;50.824;4.408;2022-11-02T07:13:20;101092.06;;;10.84;100.00
21100;BME280;10708;50.824;4.408;2022-11-02T07:18:24;101096.47;;;10.83;100.00
21100;BME280;10708;50.824;4.408;2022-11-02T07:23:26;101107.84;;;10.85;100.00
21100;BME280;10708;50.824;4.408;2022-11-02T07:28:28;101104.09;;;10.94;100.00
21100;BME280;10708;50.824;4.408;2022-11-02T07:33:32;101114.31;;;11.04;100.00
21100;BME280;10708;50.824;4.408;2022-11-02T07:38:34;101125.41;;;11.16;100.00
21100;BME280;10708;50.824;4.408;2022-11-02T07:43:37;101138.38;;;11.23;100.00
21100;BME280;10708;50.824;4.408;2022-11-02T07:48:40;101163.53;;;11.35;100.00
21100;BME280;10708;50.824;4.408;2022-11-02T07:53:43;101164.19;;;11.41;100.00
21100;BME280;10708;50.824;4.408;2022-11-02T07:58:45;101174.50;;;11.49;100.00
21100;BME280;10708;50.824;4.408;2022-11-02T08:03:49;101178.16;;;11.45;100.00
21100;BME280;10708;50.824;4.408;2022-11-02T08:08:51;101184.16;;;11.50;100.00
21100;BME280;10708;50.824;4.408;2022-11-02T08:13:53;101184.84;;;11.57;100.00
21100;BME280;10708;50.824;4.408;2022-11-02T08:18:57;101167.69;;;11.71;100.00
21100;BME280;10708;50.824;4.408;2022-11-02T08:24:00;101172.69;;;11.80;100.00
21100;BME280;10708;50.824;4.408;2022-11-02T08:29:02;101178.69;;;11.87;100.00
21100;BME280;10708;50.824;4.408;2022-11-02T08:34:07;101186.31;;;11.96;100.00
21100;BME280;10708;50.824;4.408;2022-11-02T08:39:09;101196.00;;;12.22;100.00
21100;BME280;10708;50.824;4.408;2022-11-02T08:44:11;101193.50;;;12.45;100.00
21100;BME280;10708;50.824;4.408;2022-11-02T08:49:15;101193.28;;;12.51;100.00
21100;BME280;10708;50.824;4.408;2022-11-02T08:54:19;101190.03;;;12.43;100.00
21100;BME280;10708;50.824;4.408;2022-11-02T08:59:21;101180.50;;;12.38;100.00
21100;BME280;10708;50.824;4.408;2022-11-02T09:04:25;101185.66;;;12.42;100.00
21100;BME280;10708;50.824;4.408;2022-11-02T09:09:28;101191.50;;;12.52;100.00
21100;BME280;10708;50.824;4.408;2022-11-02T09:14:30;101186.25;;;12.50;100.00
21100;BME280;10708;50.824;4.408;2022-11-02T09:19:35;101196.22;;;12.42;100.00
21100;BME280;10708;50.824;4.408;2022-11-02T09:24:37;101190.25;;;12.37;100.00
21100;BME280;10708;50.824;4.408;2022-11-02T09:29:39;101197.13;;;12.41;100.00
21100;BME280;10708;50.824;4.408;2022-11-02T09:34:43;101191.59;;;12.49;100.00
21100;BME280;10708;50.824;4.408;2022-11-02T09:39:47;101178.22;;;12.53;100.00
21100;BME280;10708;50.824;4.408;2022-11-02T09:44:56;101197.56;;;12.55;100.00
21100;BME280;10708;50.824;4.408;2022-11-02T09:50:03;101193.09;;;12.57;100.00
21100;BME280;10708;50.824;4.408;2022-11-02T09:55:11;101201.75;;;12.61;100.00
21100;BME280;10708;50.824;4.408;2022-11-02T10:00:17;101198.75;;;12.72;100.00
21100;BME280;10708;50.824;4.408;2022-11-02T10:05:31;101203.56;;;12.85;100.00
21100;BME280;10708;50.824;4.408;2022-11-02T10:10:38;101202.41;;;12.92;100.00
21100;BME280;10708;50.824;4.408;2022-11-02T10:15:45;101203.88;;;13.01;100.00
21100;BME280;10708;50.824;4.408;2022-11-02T10:20:53;101209.75;;;13.09;100.00
21100;BME280;10708;50.824;4.408;2022-11-02T10:25:57;101210.44;;;13.16;100.00
21100;BME280;10708;50.824;4.408;2022-11-02T10:31:01;101210.19;;;13.22;100.00
21100;BME280;10708;50.824;4.408;2022-11-02T10:36:17;101218.09;;;13.23;100.00
21100;BME280;10708;50.824;4.408;2022-11-02T10:41:36;101209.19;;;13.26;100.00
21100;BME280;10708;50.824;4.408;2022-11-02T10:46:50;101211.78;;;13.27;100.00
21100;BME280;10708;50.824;4.408;2022-11-02T10:51:56;101214.25;;;13.32;100.00
21100;BME280;10708;50.824;4.408;2022-11-02T10:56:59;101211.31;;;13.40;100.00
21100;BME280;10708;50.824;4.408;2022-11-02T11:02:10;101204.75;;;13.50;100.00
21100;BME280;10708;50.824;4.408;2022-11-02T11:07:23;101210.50;;;13.61;100.00
21100;BME280;10708;50.824;4.408;2022-11-02T11:12:30;101204.19;;;13.65;100.00
21100;BME280;10708;50.824;4.408;2022-11-02T11:17:35;101194.72;;;13.81;100.00
21100;BME280;10708;50.824;4.408;2022-11-02T11:22:40;101190.31;;;14.03;100.00
21100;BME280;10708;50.824;4.408;2022-11-02T11:27:44;101176.13;;;14.26;100.00
21100;BME280;10708;50.824;4.408;2022-11-02T11:32:47;101174.81;;;14.36;100.00
21100;BME280;10708;50.824;4.408;2022-11-02T11:37:53;101171.59;;;14.28;100.00
21100;BME280;10708;50.824;4.408;2022-11-02T11:42:57;101170.47;;;14.14;100.00
21100;BME280;10708;50.824;4.408;2022-11-02T11:48:03;101151.44;;;14.04;100.00
21100;BME280;10708;50.824;4.408;2022-11-02T11:53:16;101142.69;;;14.02;100.00
21100;BME280;10708;50.824;4.408;2022-11-02T11:58:22;101142.31;;;14.11;100.00
21100;BME280;10708;50.824;4.408;2022-11-02T12:03:24;101130.03;;;14.30;100.00
21100;BME280;10708;50.824;4.408;2022-11-02T12:08:37;101120.78;;;14.40;100.00
21100;BME280;10708;50.824;4.408;2022-11-02T12:13:53;101119.00;;;14.41;100.00
21100;BME280;10708;50.824;4.408;2022-11-02T12:19:15;101118.13;;;14.40;100.00
21100;BME280;10708;50.824;4.408;2022-11-02T12:24:36;101118.22;;;14.37;100.00
21100;BME280;10708;50.824;4.408;2022-11-02T12:30:02;101112.84;;;14.40;100.00
21100;BME280;10708;50.824;4.408;2022-11-02T12:35:25;101104.50;;;14.50;100.00
21100;BME280;10708;50.824;4.408;2022-11-02T12:40:40;101094.69;;;14.52;100.00
21100;BME280;10708;50.824;4.408;2022-11-02T12:45:49;101092.63;;;14.58;100.00
21100;BME280;10708;50.824;4.408;2022-11-02T12:50:57;101083.50;;;14.65;100.00
21100;BME280;10708;50.824;4.408;2022-11-02T12:56:06;101084.13;;;14.70;100.00
21100;BME280;10708;50.824;4.408;2022-11-02T13:01:14;101077.44;;;14.82;100.00
21100;BME280;10708;50.824;4.408;2022-11-02T13:06:23;101080.66;;;14.89;100.00
21100;BME280;10708;50.824;4.408;2022-11-02T13:11:33;101071.19;;;14.83;100.00
21100;BME280;10708;50.824;4.408;2022-11-02T13:16:40;101067.75;;;14.81;100.00
21100;BME280;10708;50.824;4.408;2022-11-02T13:21:47;101072.66;;;14.70;100.00
21100;BME280;10708;50.824;4.408;2022-11-02T13:26:58;101075.84;;;14.58;100.00
21100;BME280;10708;50.824;4.408;2022-11-02T13:32:07;101063.81;;;14.51;100.00
21100;BME280;10708;50.824;4.408;2022-11-02T13:37:14;101057.94;;;14.44;100.00
21100;BME280;10708;50.824;4.408;2022-11-02T13:48:29;101050.28;;;14.36;100.00
21100;BME280;10708;50.824;4.408;2022-11-02T13:53:40;101045.72;;;14.40;100.00
21100;BME280;10708;50.824;4.408;2022-11-02T13:58:46;101027.13;;;14.42;100.00
21100;BME280;10708;50.824;4.408;2022-11-02T14:03:54;101021.69;;;14.45;100.00
21100;BME280;10708;50.824;4.408;2022-11-02T14:08:59;101004.19;;;14.40;100.00
21100;BME280;10708;50.824;4.408;2022-11-02T14:14:23;101006.78;;;14.42;100.00
21100;BME280;10708;50.824;4.408;2022-11-02T14:19:31;100997.97;;;14.42;100.00
21100;BME280;10708;50.824;4.408;2022-11-02T14:25:08;100994.53;;;14.39;100.00
21100;BME280;10708;50.824;4.408;2022-11-02T14:30:40;100988.47;;;14.36;100.00
21100;BME280;10708;50.824;4.408;2022-11-02T14:35:51;100987.88;;;14.29;100.00
21100;BME280;10708;50.824;4.408;2022-11-02T14:41:03;100982.78;;;14.25;100.00
21100;BME280;10708;50.824;4.408;2022-11-02T14:46:20;100979.47;;;14.20;100.00
21100;BME280;10708;50.824;4.408;2022-11-02T14:51:34;100979.28;;;14.24;100.00
21100;BME280;10708;50.824;4.408;2022-11-02T14:56:53;100975.84;;;14.22;100.00
21100;BME280;10708;50.824;4.408;2022-11-02T15:02:01;100972.25;;;14.23;100.00
21100;BME280;10708;50.824;4.408;2022-11-02T15:07:17;100962.66;;;14.21;100.00
21100;BME280;10708;50.824;4.408;2022-11-02T15:12:30;100956.50;;;14.20;100.00
21100;BME280;10708;50.824;4.408;2022-11-02T15:17:59;100949.47;;;14.19;100.00
21100;BME280;10708;50.824;4.408;2022-11-02T15:23:18;100941.69;;;14.16;100.00
21100;BME280;10708;50.824;4.408;2022-11-02T15:28:28;100939.22;;;14.12;100.00
21100;BME280;10708;50.824;4.408;2022-11-02T15:33:40;100932.44;;;14.06;100.00
21100;BME280;10708;50.824;4.408;2022-11-02T15:38:48;100924.94;;;13.95;100.00
21100;BME280;10708;50.824;4.408;2022-11-02T15:44:18;100937.75;;;13.86;100.00
21100;BME280;10708;50.824;4.408;2022-11-02T15:49:56;100932.09;;;13.73;100.00
21100;BME280;10708;50.824;4.408;2022-11-02T15:55:08;100935.31;;;13.59;100.00
21100;BME280;10708;50.824;4.408;2022-11-02T16:00:17;100925.19;;;13.49;100.00
21100;BME280;10708;50.824;4.408;2022-11-02T16:05:22;100924.72;;;13.39;100.00
21100;BME280;10708;50.824;4.408;2022-11-02T16:10:31;100920.72;;;13.29;100.00
21100;BME280;10708;50.824;4.408;2022-11-02T16:15:35;100910.59;;;13.18;100.00
21100;BME280;10708;50.824;4.408;2022-11-02T16:20:38;100916.22;;;13.09;100.00
21100;BME280;10708;50.824;4.408;2022-11-02T16:25:45;100912.31;;;12.98;100.00
21100;BME280;10708;50.824;4.408;2022-11-02T16:31:02;100908.22;;;12.89;100.00
21100;BME280;10708;50.824;4.408;2022-11-02T16:36:05;100915.66;;;12.79;100.00
21100;BME280;10708;50.824;4.408;2022-11-02T16:41:13;100920.50;;;12.68;100.00
21100;BME280;10708;50.824;4.408;2022-11-02T16:46:16;100917.34;;;12.58;100.00
21100;BME280;10708;50.824;4.408;2022-11-02T16:51:18;100915.97;;;12.48;100.00
21100;BME280;10708;50.824;4.408;2022-11-02T16:56:25;100911.84;;;12.41;100.00
21100;BME280;10708;50.824;4.408;2022-11-02T17:01:34;100907.72;;;12.34;100.00
21100;BME280;10708;50.824;4.408;2022-11-02T17:06:39;100917.59;;;12.29;100.00
21100;BME280;10708;50.824;4.408;2022-11-02T17:11:43;100894.97;;;12.22;100.00
21100;BME280;10708;50.824;4.408;2022-11-02T17:16:57;100901.22;;;12.19;100.00
21100;BME280;10708;50.824;4.408;2022-11-02T17:22:08;100896.94;;;12.17;100.00
21100;BME280;10708;50.824;4.408;2022-11-02T17:27:23;100897.03;;;12.14;100.00
21100;BME280;10708;50.824;4.408;2022-11-02T17:32:26;100887.34;;;12.14;100.00
21100;BME280;10708;50.824;4.408;2022-11-02T17:37:30;100897.03;;;12.14;100.00
21100;BME280;10708;50.824;4.408;2022-11-02T17:42:34;100886.47;;;12.14;100.00
21100;BME280;10708;50.824;4.408;2022-11-02T17:47:55;100885.53;;;12.16;100.00
21100;BME280;10708;50.824;4.408;2022-11-02T17:52:58;100885.44;;;12.18;100.00
21100;BME280;10708;50.824;4.408;2022-11-02T17:58:05;100870.44;;;12.18;100.00
21100;BME280;10708;50.824;4.408;2022-11-02T18:03:13;100874.72;;;12.23;100.00
21100;BME280;10708;50.824;4.408;2022-11-02T18:08:16;100868.53;;;12.24;100.00
21100;BME280;10708;50.824;4.408;2022-11-02T18:13:21;100865.78;;;12.27;100.00
21100;BME280;10708;50.824;4.408;2022-11-02T18:18:24;100867.50;;;12.28;100.00
21100;BME280;10708;50.824;4.408;2022-11-02T18:23:27;100856.13;;;12.26;100.00
21100;BME280;10708;50.824;4.408;2022-11-02T18:28:32;100858.75;;;12.26;100.00
21100;BME280;10708;50.824;4.408;2022-11-02T18:33:35;100853.53;;;12.24;100.00
21100;BME280;10708;50.824;4.408;2022-11-02T18:38:37;100842.22;;;12.20;100.00
21100;BME280;10708;50.824;4.408;2022-11-02T18:43:41;100842.34;;;12.17;100.00
21100;BME280;10708;50.824;4.408;2022-11-02T18:48:43;100837.13;;;12.16;100.00
21100;BME280;10708;50.824;4.408;2022-11-02T18:53:52;100824.91;;;12.13;100.00
21100;BME280;10708;50.824;4.408;2022-11-02T18:58:57;100822.31;;;12.12;100.00
21100;BME280;10708;50.824;4.408;2022-11-02T19:03:59;100808.25;;;12.11;100.00
21100;BME280;10708;50.824;4.408;2022-11-02T19:09:03;100783.69;;;12.09;100.00
21100;BME280;10708;50.824;4.408;2022-11-02T19:14:22;100786.38;;;12.08;100.00
21100;BME280;10708;50.824;4.408;2022-11-02T19:19:25;100781.19;;;12.06;100.00
21100;BME280;10708;50.824;4.408;2022-11-02T19:24:27;100782.09;;;12.05;100.00
21100;BME280;10708;50.824;4.408;2022-11-02T19:29:31;100771.53;;;12.05;100.00
21100;BME280;10708;50.824;4.408;2022-11-02T19:34:33;100768.09;;;12.03;100.00
21100;BME280;10708;50.824;4.408;2022-11-02T19:39:36;100759.34;;;12.01;100.00
21100;BME280;10708;50.824;4.408;2022-11-02T19:44:40;100750.56;;;12.01;100.00
21100;BME280;10708;50.824;4.408;2022-11-02T19:49:42;100745.44;;;11.98;100.00
21100;BME280;10708;50.824;4.408;2022-11-02T19:54:45;100742.03;;;11.94;100.00
21100;BME280;10708;50.824;4.408;2022-11-02T19:59:48;100739.41;;;11.94;100.00
21100;BME280;10708;50.824;4.408;2022-11-02T20:04:51;100727.13;;;11.93;100.00
21100;BME280;10708;50.824;4.408;2022-11-02T20:09:53;100736.81;;;11.93;100.00
21100;BME280;10708;50.824;4.408;2022-11-02T20:14:57;100722.81;;;11.91;100.00
21100;BME280;10708;50.824;4.408;2022-11-02T20:19:59;100705.25;;;11.90;100.00
21100;BME280;10708;50.824;4.408;2022-11-02T20:25:01;100700.84;;;11.90;100.00
21100;BME280;10708;50.824;4.408;2022-11-02T20:30:07;100694.59;;;11.93;100.00
21100;BME280;10708;50.824;4.408;2022-11-02T20:35:09;100687.59;;;11.92;100.00
21100;BME280;10708;50.824;4.408;2022-11-02T20:40:12;100682.16;;;11.96;100.00
21100;BME280;10708;50.824;4.408;2022-11-02T20:45:17;100674.09;;;11.99;100.00
21100;BME280;10708;50.824;4.408;2022-11-02T20:50:19;100664.28;;;12.03;100.00
21100;BME280;10708;50.824;4.408;2022-11-02T20:55:23;100655.38;;;12.05;100.00
21100;BME280;10708;50.824;4.408;2022-11-02T21:00:27;100659.66;;;12.08;100.00
21100;BME280;10708;50.824;4.408;2022-11-02T21:05:29;100665.81;;;12.08;100.00
21100;BME280;10708;50.824;4.408;2022-11-02T21:10:32;100664.88;;;12.09;100.00
21100;BME280;10708;50.824;4.408;2022-11-02T21:15:36;100666.59;;;12.10;100.00
21100;BME280;10708;50.824;4.408;2022-11-02T21:20:38;100658.69;;;12.10;100.00
21100;BME280;10708;50.824;4.408;2022-11-02T21:25:40;100653.47;;;12.09;100.00
21100;BME280;10708;50.824;4.408;2022-11-02T21:30:44;100644.63;;;12.10;100.00
21100;BME280;10708;50.824;4.408;2022-11-02T21:35:46;100651.69;;;12.09;100.00
21100;BME280;10708;50.824;4.408;2022-11-02T21:40:49;100647.22;;;12.11;100.00
21100;BME280;10708;50.824;4.408;2022-11-02T21:45:53;100648.94;;;12.12;100.00
21100;BME280;10708;50.824;4.408;2022-11-02T21:51:02;100648.00;;;12.13;100.00
21100;BME280;10708;50.824;4.408;2022-11-02T21:56:06;100638.25;;;12.15;100.00
21100;BME280;10708;50.824;4.408;2022-11-02T22:01:12;100640.69;;;12.20;100.00
21100;BME280;10708;50.824;4.408;2022-11-02T22:06:33;100637.94;;;12.23;100.00
21100;BME280;10708;50.824;4.408;2022-11-02T22:11:37;100629.03;;;12.26;100.00
21100;BME280;10708;50.824;4.408;2022-11-02T22:16:42;100611.19;;;12.31;100.00
21100;BME280;10708;50.824;4.408;2022-11-02T22:21:44;100596.16;;;12.33;100.00
21100;BME280;10708;50.824;4.408;2022-11-02T22:26:48;100592.59;;;12.34;100.00
21100;BME280;10708;50.824;4.408;2022-11-02T22:31:53;100574.09;;;12.34;100.00
21100;BME280;10708;50.824;4.408;2022-11-02T22:36:55;100562.69;;;12.33;100.00
21100;BME280;10708;50.824;4.408;2022-11-02T22:42:18;100566.06;;;12.37;100.00
21100;BME280;10708;50.824;4.408;2022-11-02T22:47:22;100557.28;;;12.36;100.00
21100;BME280;10708;50.824;4.408;2022-11-02T22:52:24;100548.44;;;12.37;100.00
21100;BME280;10708;50.824;4.408;2022-11-02T22:57:26;100538.56;;;12.41;100.00
21100;BME280;10708;50.824;4.408;2022-11-02T23:02:30;100536.66;;;12.44;100.00
21100;BME280;10708;50.824;4.408;2022-11-02T23:07:33;100528.69;;;12.46;100.00
21100;BME280;10708;50.824;4.408;2022-11-02T23:12:35;100527.66;;;12.48;100.00
21100;BME280;10708;50.824;4.408;2022-11-02T23:17:40;100522.38;;;12.48;100.00
21100;BME280;10708;50.824;4.408;2022-11-02T23:22:42;100507.50;;;12.47;100.00
21100;BME280;10708;50.824;4.408;2022-11-02T23:28:02;100502.97;;;12.49;100.00
21100;BME280;10708;50.824;4.408;2022-11-02T23:33:27;100497.69;;;12.49;100.00
21100;BME280;10708;50.824;4.408;2022-11-02T23:38:30;100502.97;;;12.49;100.00
21100;BME280;10708;50.824;4.408;2022-11-02T23:43:46;100492.47;;;12.48;100.00
21100;BME280;10708;50.824;4.408;2022-11-02T23:48:50;100490.69;;;12.48;100.00
21100;BME280;10708;50.824;4.408;2022-11-02T23:53:52;100494.28;;;12.47;100.00
21100;BME280;10708;50.824;4.408;2022-11-02T23:59:14;100490.84;;;12.45;100.00
